Time;durP1;ratioP1;P1;durP2;ratioP2;P2;SDS_P1;SDS_P2;PMS_P1;PMS_P2;Temp;Humidity;BMP_temperature;BMP_pressure;BME280_temperature;BME280_humidity;BME280_pressure;Samples;Min_cycle;Max_cycle;Signal;HPM_P1;HPM_P2
2022/04/29 00:00:30;;;;;;;12.43;5.10;;;;;;;11.32;63.26;103037.97;5061931;28;20035;-52
2022/04/29 00:02:55;;;;;;;12.45;5.50;;;;;;;11.33;63.39;103044.91;5071471;28;20027;-52
2022/04/29 00:05:21;;;;;;;13.40;6.05;;;;;;;11.24;63.13;103042.69;5063658;28;20037;-49
2022/04/29 00:07:46;;;;;;;11.10;5.15;;;;;;;11.19;63.20;103039.81;5067152;28;20028;-53
2022/04/29 00:10:14;;;;;;;11.68;5.38;;;;;;;11.18;63.55;103040.63;5065786;28;20020;-53
2022/04/29 00:12:41;;;;;;;11.13;5.30;;;;;;;11.14;63.47;103040.34;5069989;28;20488;-52
2022/04/29 00:15:08;;;;;;;15.40;6.18;;;;;;;11.08;63.81;103035.72;5066315;28;20024;-51
2022/04/29 00:17:34;;;;;;;11.02;4.97;;;;;;;11.08;63.63;103037.41;5068996;28;20346;-52
2022/04/29 00:19:59;;;;;;;10.05;5.60;;;;;;;11.09;63.84;103034.91;5070766;28;20111;-52
2022/04/29 00:22:24;;;;;;;16.15;5.70;;;;;;;11.05;63.87;103034.66;5062934;28;20050;-50
2022/04/29 00:24:50;;;;;;;14.13;5.07;;;;;;;11.05;63.78;103038.13;5065372;28;20036;-53
2022/04/29 00:27:16;;;;;;;11.20;5.13;;;;;;;11.05;63.63;103032.06;5067645;28;20029;-52
2022/04/29 00:29:42;;;;;;;11.73;5.15;;;;;;;11.00;63.46;103030.09;5062981;28;20448;-51
2022/04/29 00:32:07;;;;;;;12.90;5.10;;;;;;;10.97;63.76;103031.59;5066229;28;20032;-53
2022/04/29 00:34:32;;;;;;;11.50;5.40;;;;;;;10.96;63.64;103030.69;5063459;28;20123;-53
2022/04/29 00:36:58;;;;;;;13.75;5.25;;;;;;;10.91;63.94;103020.91;5060474;28;20033;-52
2022/04/29 00:39:23;;;;;;;13.10;5.40;;;;;;;10.83;63.88;103032.44;5065872;28;20052;-52
2022/04/29 00:41:49;;;;;;;12.13;4.88;;;;;;;10.85;63.97;103029.16;5063526;28;20036;-46
2022/04/29 00:44:15;;;;;;;10.57;4.88;;;;;;;10.81;63.70;103028.91;5068614;28;20032;-53
2022/04/29 00:46:42;;;;;;;11.15;5.15;;;;;;;10.81;64.16;103019.50;5063183;28;20082;-52
2022/04/29 00:49:10;;;;;;;12.30;4.88;;;;;;;10.77;63.96;103021.78;5066471;28;20032;-52
2022/04/29 00:51:37;;;;;;;9.85;4.88;;;;;;;10.72;63.76;103013.75;5062527;28;20105;-51
2022/04/29 00:54:07;;;;;;;13.43;4.82;;;;;;;10.70;64.20;103017.94;5065580;28;20052;-52
2022/04/29 00:56:36;;;;;;;12.73;5.47;;;;;;;10.65;64.52;103016.75;5055339;28;20021;-52
2022/04/29 00:59:07;;;;;;;8.35;4.95;;;;;;;10.66;64.67;103019.41;5067286;28;20378;-52
2022/04/29 01:01:34;;;;;;;9.98;5.10;;;;;;;10.61;64.25;103023.38;5067105;28;20024;-52
2022/04/29 01:04:04;;;;;;;8.82;4.80;;;;;;;10.59;64.01;103014.69;5066655;28;20105;-52
2022/04/29 01:06:31;;;;;;;10.38;4.50;;;;;;;10.52;64.39;103012.53;5064245;28;20025;-52
2022/04/29 01:08:56;;;;;;;11.77;5.10;;;;;;;10.47;64.51;103019.06;5067710;28;20064;-52
2022/04/29 01:11:25;;;;;;;12.00;5.05;;;;;;;10.40;64.47;103007.50;5061768;28;20503;-51
2022/04/29 01:13:51;;;;;;;12.63;4.82;;;;;;;10.43;64.52;103002.56;5065502;28;20025;-51
2022/04/29 01:16:18;;;;;;;10.48;5.28;;;;;;;10.46;64.68;103013.03;5060566;28;20045;-52
2022/04/29 01:18:45;;;;;;;9.95;5.00;;;;;;;10.46;64.61;103007.91;5066268;28;20036;-51
2022/04/29 01:21:12;;;;;;;9.40;5.00;;;;;;;10.42;64.34;103005.91;5069554;28;21172;-52
2022/04/29 01:23:38;;;;;;;10.05;4.68;;;;;;;10.26;64.77;102999.72;5059968;28;20028;-52
2022/04/29 01:26:04;;;;;;;9.40;5.00;;;;;;;10.23;64.60;102994.34;5062670;28;20082;-51
2022/04/29 01:28:31;;;;;;;6.78;4.53;;;;;;;10.25;64.72;102997.91;5063535;28;20115;-49
2022/04/29 01:30:59;;;;;;;10.05;4.40;;;;;;;10.23;64.73;102991.78;5061417;28;20094;-51
2022/04/29 01:33:28;;;;;;;9.73;4.80;;;;;;;10.20;64.72;102985.66;5058932;28;20032;-53
2022/04/29 01:35:54;;;;;;;8.50;4.32;;;;;;;10.16;65.15;102980.22;5059262;28;20632;-49
2022/04/29 01:38:19;;;;;;;16.73;5.13;;;;;;;10.14;65.05;102974.09;5067845;28;20063;-52
2022/04/29 01:40:45;;;;;;;12.15;4.82;;;;;;;10.06;64.84;102976.16;5056712;28;20496;-52
2022/04/29 01:43:11;;;;;;;10.32;5.07;;;;;;;10.06;65.32;102980.41;5064867;28;20029;-52
2022/04/29 01:45:36;;;;;;;11.70;4.90;;;;;;;10.09;65.41;102984.06;5064565;28;20370;-53
2022/04/29 01:48:02;;;;;;;12.05;5.30;;;;;;;10.11;65.13;102979.03;5062061;28;20032;-52
2022/04/29 01:50:27;;;;;;;11.30;4.82;;;;;;;10.07;65.30;102979.63;5065839;28;20044;-46
2022/04/29 01:52:52;;;;;;;14.90;5.10;;;;;;;10.08;65.18;102972.03;5067918;28;20036;-51
2022/04/29 01:55:18;;;;;;;10.55;4.95;;;;;;;10.06;64.96;102973.59;5062927;28;20028;-52
2022/04/29 01:57:48;;;;;;;13.60;5.15;;;;;;;10.09;65.47;102978.94;5063202;28;20123;-52
2022/04/29 02:00:14;;;;;;;11.13;5.57;;;;;;;10.02;65.45;102970.75;5068241;28;20032;-49
2022/04/29 02:02:39;;;;;;;11.57;5.30;;;;;;;10.05;65.07;102969.25;5064634;28;20033;-52
2022/04/29 02:05:05;;;;;;;12.43;5.00;;;;;;;10.00;65.27;102975.75;5062439;28;20060;-52
2022/04/29 02:07:30;;;;;;;19.00;5.38;;;;;;;9.99;65.42;102980.81;5063636;28;20032;-52
2022/04/29 02:09:56;;;;;;;9.70;5.35;;;;;;;9.92;65.71;102980.41;5062518;28;20028;-52
2022/04/29 02:12:22;;;;;;;10.02;5.57;;;;;;;9.94;65.67;102988.22;5065005;28;20555;-51
2022/04/29 02:14:47;;;;;;;13.88;5.40;;;;;;;9.87;65.59;102979.22;5060472;28;20029;-52
2022/04/29 02:17:13;;;;;;;14.30;5.25;;;;;;;9.84;65.56;102975.59;5062662;28;20024;-50
2022/04/29 02:19:39;;;;;;;17.75;6.13;;;;;;;9.77;65.74;102970.81;5062255;28;20393;-50
2022/04/29 02:22:06;;;;;;;12.02;5.97;;;;;;;9.80;65.89;102973.59;5063581;28;20036;-51
2022/04/29 02:24:32;;;;;;;12.73;6.10;;;;;;;9.78;66.20;102981.22;5058802;28;20025;-52
2022/04/29 02:26:59;;;;;;;14.88;6.10;;;;;;;9.61;66.19;102968.97;5062095;28;20031;-51
2022/04/29 02:29:25;;;;;;;10.52;5.80;;;;;;;9.63;66.36;102969.94;5062963;28;20032;-53
2022/04/29 02:31:52;;;;;;;11.98;6.03;;;;;;;9.61;66.48;102959.56;5064448;28;20025;-53
2022/04/29 02:34:17;;;;;;;11.00;6.00;;;;;;;9.60;66.47;102962.94;5065026;28;20085;-52
2022/04/29 02:36:43;;;;;;;9.63;5.88;;;;;;;9.58;66.41;102967.06;5065622;28;20016;-52
2022/04/29 02:39:08;;;;;;;15.82;6.05;;;;;;;9.53;66.74;102967.56;5062415;28;20049;-51
2022/04/29 02:41:34;;;;;;;13.05;6.00;;;;;;;9.51;67.02;102964.88;5066200;28;20036;-52
2022/04/29 02:43:59;;;;;;;14.65;6.30;;;;;;;9.38;67.16;102962.28;5061541;28;20036;-52
2022/04/29 02:46:25;;;;;;;9.75;5.75;;;;;;;9.42;67.01;102963.41;5063065;28;20047;-51
2022/04/29 02:48:50;;;;;;;15.93;6.82;;;;;;;9.40;67.42;102963.28;5061858;28;20021;-51
2022/04/29 02:51:16;;;;;;;9.88;6.53;;;;;;;9.38;67.44;102967.44;5060031;28;20036;-52
2022/04/29 02:53:42;;;;;;;11.07;6.65;;;;;;;9.31;67.40;102967.81;5061877;28;20028;-52
2022/04/29 02:56:07;;;;;;;11.68;6.88;;;;;;;9.34;67.90;102975.72;5065237;28;20028;-50
2022/04/29 02:58:33;;;;;;;18.42;7.47;;;;;;;9.38;67.66;102964.88;5059257;28;20057;-51
2022/04/29 03:00:58;;;;;;;14.00;6.97;;;;;;;9.37;67.68;102965.66;5063988;28;20024;-51
2022/04/29 03:03:24;;;;;;;10.85;6.65;;;;;;;9.26;67.79;102961.47;5060859;28;20036;-52
2022/04/29 03:05:49;;;;;;;15.20;7.00;;;;;;;9.26;67.86;102958.91;5059358;28;20029;-52
2022/04/29 03:08:14;;;;;;;11.15;6.78;;;;;;;9.21;68.40;102960.28;5064160;28;20086;-52
2022/04/29 03:10:40;;;;;;;15.00;7.13;;;;;;;9.26;68.20;102953.78;5064256;28;20031;-47
2022/04/29 03:13:05;;;;;;;15.27;7.65;;;;;;;9.25;67.92;102947.75;5065349;28;20052;-52
2022/04/29 03:15:33;;;;;;;13.43;7.15;;;;;;;9.23;67.81;102935.63;5062730;28;20430;-51
2022/04/29 03:20:45;;;;;;;12.50;7.70;;;;;;;9.17;68.16;102928.41;5061136;28;20184;-50
2022/04/29 03:23:12;;;;;;;11.77;7.63;;;;;;;9.10;68.44;102934.81;5061882;28;20477;-51
2022/04/29 03:25:38;;;;;;;13.55;7.57;;;;;;;9.09;68.68;102930.44;5064667;28;20283;-51
2022/04/29 03:28:06;;;;;;;13.25;7.43;;;;;;;9.07;68.85;102931.13;5080636;28;20123;-51
2022/04/29 03:30:32;;;;;;;16.83;7.85;;;;;;;9.10;68.78;102929.69;5063505;28;20032;-50
2022/04/29 03:33:00;;;;;;;11.75;7.13;;;;;;;9.14;68.30;102931.63;5063435;28;20118;-50
2022/04/29 03:35:26;;;;;;;16.00;8.20;;;;;;;9.16;68.88;102946.25;5062326;28;20507;-50
2022/04/29 03:37:53;;;;;;;15.18;8.10;;;;;;;9.14;68.72;102957.31;5064419;28;20023;-53
2022/04/29 03:40:21;;;;;;;18.73;8.02;;;;;;;9.19;68.70;102961.88;5059459;28;20033;-52
2022/04/29 03:42:52;;;;;;;17.15;8.20;;;;;;;9.24;68.32;102945.09;5060319;28;20058;-52
2022/04/29 03:45:18;;;;;;;13.82;8.00;;;;;;;9.21;68.33;102950.00;5064497;28;20524;-52
2022/04/29 03:47:44;;;;;;;11.88;8.10;;;;;;;9.22;68.48;102949.22;5065094;28;20032;-52
2022/04/29 03:50:10;;;;;;;13.90;8.35;;;;;;;9.21;68.31;102947.44;5065432;28;20056;-50
2022/04/29 03:52:50;;;;;;;14.50;7.97;;;;;;;9.26;68.09;102939.25;5060585;28;20020;-52
2022/04/29 03:55:18;;;;;;;16.23;8.80;;;;;;;9.14;68.78;102947.03;5065258;28;20575;-52
2022/04/29 03:57:43;;;;;;;15.52;8.18;;;;;;;9.11;68.50;102936.59;5066970;28;20492;-51
2022/04/29 04:00:10;;;;;;;15.23;8.05;;;;;;;9.10;68.82;102939.94;5063346;28;20036;-51
2022/04/29 04:02:35;;;;;;;14.98;8.40;;;;;;;9.01;68.91;102930.72;5060213;28;20501;-47
2022/04/29 04:05:01;;;;;;;17.15;9.25;;;;;;;8.98;68.84;102931.41;5065553;28;20085;-51
2022/04/29 04:07:26;;;;;;;14.63;9.00;;;;;;;9.03;69.18;102939.41;5062837;28;20416;-53
2022/04/29 04:09:52;;;;;;;15.70;9.23;;;;;;;9.04;68.97;102939.53;5065015;28;20079;-48
2022/04/29 04:12:17;;;;;;;15.35;9.40;;;;;;;9.04;68.84;102930.91;5070187;28;20036;-53
2022/04/29 04:14:43;;;;;;;13.98;8.98;;;;;;;9.03;68.75;102940.28;5058110;28;20525;-49
2022/04/29 04:17:08;;;;;;;16.67;9.52;;;;;;;9.05;68.79;102940.41;5067422;28;20047;-52
2022/04/29 04:19:35;;;;;;;16.70;9.63;;;;;;;9.02;69.07;102938.50;5067228;28;20085;-52
2022/04/29 04:22:01;;;;;;;15.57;9.38;;;;;;;9.00;68.98;102929.84;5067090;28;20024;-49
2022/04/29 04:24:26;;;;;;;15.65;9.80;;;;;;;8.91;68.88;102925.75;5065912;28;20253;-50
2022/04/29 04:26:52;;;;;;;16.38;9.35;;;;;;;8.88;69.21;102926.44;5067815;28;20021;-51
2022/04/29 04:29:17;;;;;;;17.88;9.85;;;;;;;8.84;69.17;102934.72;5067512;28;20033;-53
2022/04/29 04:31:42;;;;;;;17.17;10.43;;;;;;;8.81;69.37;102919.13;5067951;28;20086;-52
2022/04/29 04:36:54;;;;;;;17.17;10.05;;;;;;;8.86;69.42;102935.72;5064043;28;20043;-51
2022/04/29 04:39:22;;;;;;;17.50;10.30;;;;;;;8.92;69.17;102935.22;5061967;28;20137;-48
2022/04/29 04:41:48;;;;;;;19.85;10.73;;;;;;;8.85;69.23;102927.09;5065618;28;20484;-51
2022/04/29 04:44:13;;;;;;;16.30;10.30;;;;;;;8.80;69.14;102918.25;5062484;28;20029;-51
2022/04/29 04:46:39;;;;;;;17.73;9.68;;;;;;;8.79;69.49;102925.81;5067290;28;20025;-51
2022/04/29 04:49:05;;;;;;;17.15;10.25;;;;;;;8.78;69.61;102927.47;5066600;28;20033;-51
2022/04/29 04:51:30;;;;;;;16.98;9.57;;;;;;;8.78;69.52;102924.03;5063606;28;20040;-51
2022/04/29 04:53:55;;;;;;;17.42;10.27;;;;;;;8.75;69.78;102928.97;5065080;28;20024;-52
2022/04/29 04:56:21;;;;;;;17.20;10.20;;;;;;;8.78;69.70;102924.03;5066255;28;20051;-53
2022/04/29 04:58:46;;;;;;;17.50;10.93;;;;;;;8.70;69.75;102922.63;5063842;28;20423;-49
2022/04/29 05:01:11;;;;;;;19.75;10.40;;;;;;;8.67;69.58;102922.41;5064048;28;20396;-50
2022/04/29 05:03:37;;;;;;;14.77;9.70;;;;;;;8.70;69.95;102926.06;5061041;28;20033;-52
2022/04/29 05:06:02;;;;;;;15.00;10.55;;;;;;;8.67;69.64;102925.84;5063737;28;20028;-52
2022/04/29 05:08:28;;;;;;;14.13;9.98;;;;;;;8.67;70.00;102917.28;5066445;28;20028;-52
2022/04/29 05:10:53;;;;;;;17.48;10.48;;;;;;;8.63;70.24;102917.88;5063739;28;20544;-52
2022/04/29 05:13:18;;;;;;;17.63;10.43;;;;;;;8.70;70.02;102918.38;5064342;28;20115;-52
2022/04/29 05:15:44;;;;;;;17.67;10.45;;;;;;;8.72;70.25;102931.31;5067501;28;20627;-52
2022/04/29 05:18:10;;;;;;;19.73;10.25;;;;;;;8.74;70.37;102922.06;5068256;28;20036;-51
2022/04/29 05:20:35;;;;;;;21.05;10.90;;;;;;;8.75;69.64;102924.72;5064273;28;20445;-51
2022/04/29 05:23:01;;;;;;;18.67;10.48;;;;;;;8.80;69.88;102933.63;5065386;28;20390;-50
2022/04/29 05:25:26;;;;;;;19.50;10.75;;;;;;;8.78;69.61;102929.16;5066548;28;20492;-51
2022/04/29 05:27:51;;;;;;;13.90;10.07;;;;;;;8.78;69.56;102935.19;5066891;28;20484;-50
2022/04/29 05:30:17;;;;;;;18.63;9.70;;;;;;;8.80;69.66;102933.63;5066681;28;20615;-51
2022/04/29 05:32:42;;;;;;;18.05;10.60;;;;;;;8.77;69.78;102937.66;5063652;28;20127;-51
2022/04/29 05:35:09;;;;;;;16.00;10.07;;;;;;;8.77;69.94;102935.97;5066327;28;20457;-51
2022/04/29 05:37:36;;;;;;;18.20;10.15;;;;;;;8.78;69.65;102934.28;5064693;28;20050;-45
2022/04/29 05:42:47;;;;;;;18.30;10.43;;;;;;;8.83;69.59;102938.06;5066706;28;20090;-50
2022/04/29 05:45:12;;;;;;;18.73;9.93;;;;;;;8.75;69.85;102929.84;5066487;28;20041;-51
2022/04/29 05:47:37;;;;;;;21.83;10.20;;;;;;;8.76;69.66;102923.94;5067945;28;20025;-52
2022/04/29 05:50:03;;;;;;;20.45;10.73;;;;;;;8.75;69.94;102924.72;5066914;28;20358;-51
2022/04/29 05:52:29;;;;;;;21.83;9.98;;;;;;;8.77;69.99;102927.38;5067628;28;20612;-52
2022/04/29 05:54:55;;;;;;;17.60;10.27;;;;;;;8.76;70.02;102923.03;5064278;28;20021;-51
2022/04/29 05:57:20;;;;;;;19.92;10.63;;;;;;;8.72;70.48;102932.19;5066533;28;20020;-51
2022/04/29 05:59:46;;;;;;;17.95;11.77;;;;;;;8.72;70.21;102939.88;5066545;28;20024;-51
2022/04/29 06:02:12;;;;;;;18.75;11.30;;;;;;;8.79;70.41;102942.06;5066080;28;20032;-52
2022/04/29 06:04:37;;;;;;;18.85;10.18;;;;;;;8.77;70.23;102947.91;5067080;28;20023;-51
2022/04/29 06:07:03;;;;;;;21.08;10.90;;;;;;;8.83;70.53;102945.75;5068227;28;20463;-52
2022/04/29 06:09:28;;;;;;;20.65;10.63;;;;;;;8.84;70.38;102947.53;5064021;28;20041;-50
2022/04/29 06:11:53;;;;;;;23.02;11.30;;;;;;;8.85;70.42;102950.19;5066220;28;20035;-48
2022/04/29 06:14:19;;;;;;;23.88;10.95;;;;;;;8.86;70.30;102954.56;5065950;28;20031;-51
2022/04/29 06:16:46;;;;;;;20.50;11.20;;;;;;;8.87;70.41;102952.88;5062687;28;20112;-51
2022/04/29 06:19:11;;;;;;;16.55;10.85;;;;;;;8.87;70.27;102955.47;5063507;28;20119;-50
2022/04/29 06:21:38;;;;;;;20.65;11.50;;;;;;;8.86;70.26;102957.13;5066764;28;20039;-52
2022/04/29 06:24:04;;;;;;;18.95;12.07;;;;;;;8.89;70.61;102956.44;5063446;28;20040;-50
2022/04/29 06:26:30;;;;;;;24.60;11.18;;;;;;;8.98;70.62;102959.66;5063788;28;20033;-52
2022/04/29 06:28:55;;;;;;;20.88;11.18;;;;;;;9.03;70.27;102963.38;5065380;28;20043;-50
2022/04/29 06:31:20;;;;;;;21.27;11.13;;;;;;;8.98;70.58;102961.28;5063728;28;20499;-51
2022/04/29 06:33:46;;;;;;;22.95;11.88;;;;;;;8.98;70.21;102966.41;5059189;28;20059;-52
2022/04/29 06:36:12;;;;;;;20.02;11.23;;;;;;;8.91;70.17;102962.56;5063262;28;20107;-52
2022/04/29 06:38:37;;;;;;;23.17;11.75;;;;;;;8.89;70.81;102961.56;5065519;28;20056;-52
2022/04/29 06:41:02;;;;;;;18.50;11.68;;;;;;;8.92;70.68;102963.44;5063244;28;20499;-51
2022/04/29 06:43:29;;;;;;;26.83;12.13;;;;;;;8.99;70.63;102966.56;5063339;28;20033;-51
2022/04/29 06:45:55;;;;;;;19.85;10.73;;;;;;;9.00;70.40;102962.31;5064166;28;20032;-52
2022/04/29 06:48:21;;;;;;;17.98;11.30;;;;;;;8.96;70.51;102963.75;5066460;28;20481;-52
2022/04/29 06:50:46;;;;;;;21.23;11.70;;;;;;;8.98;70.71;102967.34;5064171;28;20479;-51
2022/04/29 06:53:12;;;;;;;22.17;11.40;;;;;;;9.08;70.72;102972.28;5066054;28;20032;-49
2022/04/29 06:55:38;;;;;;;18.85;11.20;;;;;;;9.11;70.20;102975.09;5065720;28;20078;-51
2022/04/29 06:58:04;;;;;;;22.98;11.60;;;;;;;9.17;70.14;102971.16;5066714;28;20509;-52
2022/04/29 07:00:29;;;;;;;19.17;11.40;;;;;;;9.19;69.91;102979.84;5062108;28;20064;-48
2022/04/29 07:02:56;;;;;;;19.25;11.27;;;;;;;9.16;70.11;102980.53;5065362;28;20059;-51
2022/04/29 07:05:23;;;;;;;21.15;11.48;;;;;;;9.25;70.01;102980.25;5067457;28;20039;-51
2022/04/29 07:07:49;;;;;;;23.35;11.05;;;;;;;9.33;70.13;102973.94;5066650;28;20036;-51
2022/04/29 07:10:15;;;;;;;21.40;11.57;;;;;;;9.41;70.52;102985.63;5064294;28;20050;-48
2022/04/29 07:12:46;;;;;;;21.92;11.80;;;;;;;9.52;69.71;102976.94;5062600;28;20473;-49
2022/04/29 07:15:13;;;;;;;21.50;11.50;;;;;;;9.58;69.35;102979.00;5064185;28;20028;-51
2022/04/29 07:17:39;;;;;;;22.60;11.27;;;;;;;9.67;69.39;102967.69;5063233;28;20042;-52
2022/04/29 07:20:06;;;;;;;24.83;11.73;;;;;;;9.77;68.68;102968.25;5061991;28;20051;-51
2022/04/29 07:22:32;;;;;;;18.45;11.23;;;;;;;9.80;68.33;102965.91;5056931;28;20060;-52
2022/04/29 07:24:58;;;;;;;21.52;11.63;;;;;;;9.91;68.24;102964.91;5065196;28;20059;-52
2022/04/29 07:27:24;;;;;;;25.80;11.13;;;;;;;9.97;68.40;102962.75;5061207;28;20552;-52
2022/04/29 07:29:49;;;;;;;22.63;11.05;;;;;;;10.04;67.37;102966.59;5066868;28;20509;-49
2022/04/29 07:32:14;;;;;;;19.50;10.75;;;;;;;10.15;67.07;102965.59;5068424;28;20560;-52
2022/04/29 07:42:52;;;;;;;21.27;10.80;;;;;;;10.52;66.48;102963.66;5062984;28;20056;-51
2022/04/29 07:45:17;;;;;;;20.75;10.98;;;;;;;10.58;66.56;102960.56;5066282;28;20599;-52
2022/04/29 07:47:43;;;;;;;17.70;10.82;;;;;;;10.59;66.08;102965.81;5050978;28;20033;-52
2022/04/29 07:50:08;;;;;;;18.73;10.43;;;;;;;10.72;66.18;102964.88;5067416;28;20028;-51
2022/04/29 07:52:34;;;;;;;18.92;10.65;;;;;;;10.92;66.79;102953.19;5069369;28;20056;-50
2022/04/29 07:55:01;;;;;;;21.60;10.68;;;;;;;10.91;65.92;102960.03;5070694;28;20024;-53
2022/04/29 07:57:26;;;;;;;22.73;10.75;;;;;;;10.97;64.79;102964.66;5068272;28;20508;-52
2022/04/29 07:59:52;;;;;;;22.65;10.70;;;;;;;10.92;64.83;102964.41;5069742;28;20024;-51
2022/04/29 08:02:17;;;;;;;19.70;10.10;;;;;;;10.92;64.78;102963.50;5068775;28;20056;-52
2022/04/29 08:04:43;;;;;;;18.70;10.23;;;;;;;10.99;64.66;102971.69;5063321;28;20389;-52
2022/04/29 08:07:11;;;;;;;18.65;11.18;;;;;;;11.01;64.84;102972.66;5067078;28;20060;-52
2022/04/29 08:09:37;;;;;;;20.20;10.30;;;;;;;11.08;64.71;102983.31;5068204;28;20029;-51
2022/04/29 08:12:04;;;;;;;23.08;10.48;;;;;;;11.09;64.64;102982.53;5065927;28;20078;-53
2022/04/29 08:14:29;;;;;;;19.65;10.35;;;;;;;11.10;65.39;102974.91;5062984;28;20526;-48
2022/04/29 08:16:54;;;;;;;22.67;11.70;;;;;;;11.07;65.02;102978.97;5069666;28;20017;-52
2022/04/29 08:19:20;;;;;;;21.42;11.55;;;;;;;11.06;65.61;102977.22;5068433;28;20348;-51
2022/04/29 08:21:45;;;;;;;22.02;10.93;;;;;;;11.10;65.49;102968.84;5066470;28;20051;-53
2022/04/29 08:24:12;;;;;;;19.75;11.30;;;;;;;11.17;65.41;102969.31;5065879;28;20063;-52
2022/04/29 08:26:37;;;;;;;18.70;10.80;;;;;;;11.18;65.90;102959.91;5063551;28;20119;-52
2022/04/29 08:29:03;;;;;;;22.45;10.80;;;;;;;11.19;64.97;102965.16;5068818;28;20115;-52
2022/04/29 08:31:28;;;;;;;21.05;11.63;;;;;;;11.17;64.70;102969.31;5064595;28;20135;-52
2022/04/29 08:33:55;;;;;;;17.15;10.95;;;;;;;11.17;65.39;102976.16;5064529;28;20571;-50
2022/04/29 08:36:20;;;;;;;19.50;11.13;;;;;;;11.16;64.74;102977.84;5069352;28;20028;-53
2022/04/29 08:38:46;;;;;;;21.40;11.05;;;;;;;11.20;65.27;102978.91;5066793;28;20436;-52
2022/04/29 08:41:12;;;;;;;17.55;10.45;;;;;;;11.18;64.38;102983.09;5064512;28;20051;-52
2022/04/29 08:43:39;;;;;;;20.60;10.90;;;;;;;11.15;64.98;102988.94;5069631;28;20020;-53
2022/04/29 08:46:06;;;;;;;17.83;10.70;;;;;;;11.19;65.63;102983.16;5068270;28;20086;-51
2022/04/29 08:48:33;;;;;;;20.85;10.95;;;;;;;11.14;65.12;102974.28;5068966;28;20036;-50
2022/04/29 08:50:59;;;;;;;22.40;12.07;;;;;;;11.12;65.48;102981.03;5062946;28;20032;-52
2022/04/29 08:53:25;;;;;;;21.13;11.18;;;;;;;11.17;65.68;102982.19;5066366;28;20029;-51
2022/04/29 08:58:37;;;;;;;20.00;10.48;;;;;;;11.25;64.97;102974.94;5065264;28;20052;-52
2022/04/29 09:01:13;;;;;;;18.25;11.45;;;;;;;11.28;65.38;102976.00;5068754;28;20542;-53
2022/04/29 09:03:41;;;;;;;21.63;10.85;;;;;;;11.39;65.11;102986.03;5065008;28;20037;-53
2022/04/29 09:06:07;;;;;;;22.53;11.03;;;;;;;11.38;64.99;102984.25;5064888;28;20063;-53
2022/04/29 09:08:40;;;;;;;23.27;11.45;;;;;;;11.36;64.95;102973.88;5068409;28;20127;-52
2022/04/29 09:11:06;;;;;;;20.45;11.38;;;;;;;11.39;65.21;102965.41;5064657;28;20524;-52
2022/04/29 09:13:35;;;;;;;27.17;12.77;;;;;;;11.42;65.08;102971.66;5063550;28;20032;-52
2022/04/29 09:16:07;;;;;;;23.70;11.57;;;;;;;11.48;64.74;102966.84;5067412;28;20029;-52
2022/04/29 09:18:43;;;;;;;20.63;11.77;;;;;;;11.50;64.52;102967.81;5055832;28;20101;-50
2022/04/29 09:21:14;;;;;;;20.25;11.30;;;;;;;11.51;64.30;102969.59;5059262;28;20473;-53
2022/04/29 09:23:55;;;;;;;25.00;11.55;;;;;;;11.51;64.77;102969.59;5058470;28;20031;-52
2022/04/29 09:26:26;;;;;;;19.33;11.73;;;;;;;11.53;64.86;102961.97;5061283;28;20032;-51
2022/04/29 09:29:12;;;;;;;17.98;10.90;;;;;;;11.58;64.81;102960.53;5067939;28;20378;-52
2022/04/29 09:32:01;;;;;;;18.95;10.48;;;;;;;11.64;64.74;102965.13;5066252;28;20504;-52
2022/04/29 09:34:46;;;;;;;23.58;11.10;;;;;;;11.68;64.41;102969.69;5066194;28;20300;-52
2022/04/29 09:37:16;;;;;;;22.60;10.57;;;;;;;11.71;64.81;102954.38;5066649;28;20040;-52
2022/04/29 09:39:51;;;;;;;;;;;;;;;11.87;64.69;102975.09;5065612;28;20444;-53
2022/04/29 09:42:16;;;;;;;18.45;10.68;;;;;;;11.91;64.69;102981.34;5065867;28;19924;-49
2022/04/29 09:44:42;;;;;;;21.42;10.57;;;;;;;11.94;63.99;102984.06;5067894;28;20058;-53
2022/04/29 09:47:11;;;;;;;22.42;10.77;;;;;;;11.99;63.81;102990.38;5063799;28;20074;-52
2022/04/29 09:49:37;;;;;;;19.52;10.48;;;;;;;11.95;64.11;102979.03;5066648;28;20024;-53
2022/04/29 09:52:02;;;;;;;21.02;10.63;;;;;;;12.01;64.84;102976.78;5061081;28;20087;-51
2022/04/29 09:54:37;;;;;;;19.13;11.10;;;;;;;12.10;64.30;102978.97;5068506;28;20036;-51
2022/04/29 09:57:17;;;;;;;21.08;11.10;;;;;;;12.11;64.32;102975.59;5066214;28;20028;-51
2022/04/29 09:59:54;;;;;;;21.02;11.27;;;;;;;12.10;63.69;102971.22;5059730;28;20055;-52
2022/04/29 10:02:25;;;;;;;18.02;10.45;;;;;;;12.03;63.93;102975.16;5067217;28;20024;-52
2022/04/29 10:04:51;;;;;;;23.30;11.10;;;;;;;12.00;63.84;102972.41;5064253;28;20025;-53
2022/04/29 10:07:19;;;;;;;21.88;10.70;;;;;;;12.01;63.80;102970.72;5063582;28;20446;-52
2022/04/29 10:09:49;;;;;;;19.30;9.98;;;;;;;12.04;63.45;102965.75;5063100;28;20039;-51
2022/04/29 10:12:17;;;;;;;22.38;9.82;;;;;;;12.04;63.47;102961.47;5061891;28;20481;-53
2022/04/29 10:14:45;;;;;;;25.35;10.48;;;;;;;12.05;63.02;102965.81;5063418;28;20107;-52
2022/04/29 10:22:50;;;;;;;23.73;10.07;;;;;;;12.01;63.73;102950.06;5060895;28;20048;-53
2022/04/29 10:25:17;;;;;;;19.85;9.90;;;;;;;12.04;64.34;102951.16;5065061;28;20029;-50
2022/04/29 10:27:43;;;;;;;21.25;10.48;;;;;;;12.07;63.50;102963.31;5060781;28;20037;-53
2022/04/29 10:30:09;;;;;;;18.30;9.68;;;;;;;12.07;63.39;102963.31;5062414;28;20043;-52
2022/04/29 10:33:02;;;;;;;18.10;9.20;;;;;;;12.12;62.89;102958.41;5067368;28;20173;-52
2022/04/29 10:35:42;;;;;;;22.73;10.10;;;;;;;12.10;63.28;102952.28;5062094;28;20561;-48
2022/04/29 10:38:35;;;;;;;21.70;9.68;;;;;;;12.10;63.44;102955.75;5064098;28;20056;-53
2022/04/29 10:41:07;;;;;;;20.15;9.40;;;;;;;12.08;63.38;102941.91;5059650;28;20047;-50
2022/04/29 10:43:36;;;;;;;19.40;9.73;;;;;;;12.12;63.62;102948.09;5063891;28;20488;-53
2022/04/29 10:46:15;;;;;;;18.92;9.50;;;;;;;12.23;63.31;102949.56;5066843;28;20484;-52
2022/04/29 10:48:41;;;;;;;22.20;9.68;;;;;;;12.26;63.01;102949.75;5063867;28;20508;-48
2022/04/29 10:51:30;;;;;;;16.80;8.73;;;;;;;12.29;62.91;102937.91;5064619;28;20032;-53
2022/04/29 10:53:58;;;;;;;18.65;9.13;;;;;;;12.33;63.27;102933.81;5035684;28;20083;-51
2022/04/29 10:56:26;;;;;;;19.38;9.00;;;;;;;12.33;63.57;102926.94;5063833;28;20028;-52
2022/04/29 10:58:53;;;;;;;18.92;9.27;;;;;;;12.37;62.95;102933.13;5063968;28;20038;-53
2022/04/29 11:01:28;;;;;;;19.77;8.95;;;;;;;12.45;63.16;102937.03;5064780;28;20033;-53
2022/04/29 11:03:54;;;;;;;17.90;8.63;;;;;;;12.49;62.33;102938.97;5062223;28;20154;-53
2022/04/29 11:06:19;;;;;;;23.50;8.95;;;;;;;12.49;62.51;102928.63;5066243;28;20124;-53
2022/04/29 11:08:46;;;;;;;17.77;8.85;;;;;;;12.49;61.58;102927.75;5065503;28;20109;-53
2022/04/29 11:11:12;;;;;;;16.75;8.55;;;;;;;12.56;61.98;102933.34;5059098;28;20035;-52
2022/04/29 11:13:43;;;;;;;20.80;8.23;;;;;;;12.63;61.68;102934.56;5062975;28;20028;-53
2022/04/29 11:16:13;;;;;;;16.38;8.43;;;;;;;12.65;61.61;102932.94;5063044;28;20013;-52
2022/04/29 11:18:42;;;;;;;18.60;8.40;;;;;;;12.70;61.44;102928.00;5063336;28;20047;-53
2022/04/29 11:26:44;;;;;;;18.00;8.60;;;;;;;12.74;60.34;102917.00;5066694;28;20389;-52
2022/04/29 11:29:10;;;;;;;17.20;8.00;;;;;;;12.74;60.20;102922.19;5063772;28;20028;-53
2022/04/29 11:31:36;;;;;;;20.27;8.50;;;;;;;12.81;60.32;102909.69;5063091;28;20489;-53
2022/04/29 11:34:08;;;;;;;15.05;8.35;;;;;;;12.87;60.59;102919.44;5059872;28;20036;-53
2022/04/29 11:36:34;;;;;;;19.48;7.70;;;;;;;12.89;60.13;102917.81;5061252;28;20028;-52
2022/04/29 11:39:01;;;;;;;19.30;7.72;;;;;;;12.94;59.66;102918.06;5066016;28;20050;-50
2022/04/29 11:41:29;;;;;;;19.90;7.57;;;;;;;13.01;59.69;102914.97;5066074;28;20025;-51
2022/04/29 11:43:54;;;;;;;14.88;7.63;;;;;;;13.10;59.18;102906.00;5062810;28;20484;-52
2022/04/29 11:46:21;;;;;;;16.17;7.10;;;;;;;13.20;57.23;102915.09;5066015;28;20024;-52